sensor_id;sensor_type;location;lat;lon;timestamp;P1;durP1;ratioP1;P2;durP2;ratioP2
69551;SDS011;63774;45.292;11.784;2023-06-22T00:01:56;17.00;;;12.60;;
69551;SDS011;63774;45.292;11.784;2023-06-22T00:04:21;16.40;;;12.60;;
69551;SDS011;63774;45.292;11.784;2023-06-22T00:06:47;16.50;;;13.20;;
69551;SDS011;63774;45.292;11.784;2023-06-22T00:09:12;17.40;;;13.20;;
69551;SDS011;63774;45.292;11.784;2023-06-22T00:11:37;15.50;;;13.30;;
69551;SDS011;63774;45.292;11.784;2023-06-22T00:14:03;17.90;;;13.10;;
69551;SDS011;63774;45.292;11.784;2023-06-22T00:16:31;18.60;;;13.90;;
69551;SDS011;63774;45.292;11.784;2023-06-22T00:18:57;17.20;;;13.40;;
69551;SDS011;63774;45.292;11.784;2023-06-22T00:21:25;19.00;;;14.30;;
69551;SDS011;63774;45.292;11.784;2023-06-22T00:23:51;18.60;;;14.00;;
69551;SDS011;63774;45.292;11.784;2023-06-22T00:26:17;18.40;;;14.40;;
69551;SDS011;63774;45.292;11.784;2023-06-22T00:28:42;19.20;;;14.80;;
69551;SDS011;63774;45.292;11.784;2023-06-22T00:31:07;15.60;;;13.50;;
69551;SDS011;63774;45.292;11.784;2023-06-22T00:33:33;22.80;;;14.80;;
69551;SDS011;63774;45.292;11.784;2023-06-22T00:35:58;21.00;;;14.30;;
69551;SDS011;63774;45.292;11.784;2023-06-22T00:38:24;15.80;;;13.40;;
69551;SDS011;63774;45.292;11.784;2023-06-22T00:40:49;19.90;;;14.70;;
69551;SDS011;63774;45.292;11.784;2023-06-22T00:43:15;17.80;;;14.70;;
69551;SDS011;63774;45.292;11.784;2023-06-22T00:45:40;18.00;;;14.30;;
69551;SDS011;63774;45.292;11.784;2023-06-22T00:48:06;18.00;;;14.50;;
69551;SDS011;63774;45.292;11.784;2023-06-22T00:50:33;18.30;;;14.30;;
69551;SDS011;63774;45.292;11.784;2023-06-22T00:53:01;17.60;;;14.30;;
69551;SDS011;63774;45.292;11.784;2023-06-22T00:55:33;21.40;;;14.90;;
69551;SDS011;63774;45.292;11.784;2023-06-22T00:58:03;18.10;;;14.50;;
69551;SDS011;63774;45.292;11.784;2023-06-22T01:00:30;17.70;;;14.20;;
69551;SDS011;63774;45.292;11.784;2023-06-22T01:02:57;18.50;;;14.20;;
69551;SDS011;63774;45.292;11.784;2023-06-22T01:05:23;21.10;;;14.60;;
69551;SDS011;63774;45.292;11.784;2023-06-22T01:08:06;18.30;;;13.60;;
69551;SDS011;63774;45.292;11.784;2023-06-22T01:10:52;18.30;;;14.60;;
69551;SDS011;63774;45.292;11.784;2023-06-22T01:16:23;18.00;;;14.10;;
69551;SDS011;63774;45.292;11.784;2023-06-22T01:18:50;18.30;;;14.30;;
69551;SDS011;63774;45.292;11.784;2023-06-22T01:21:20;17.50;;;14.40;;
69551;SDS011;63774;45.292;11.784;2023-06-22T01:28:53;18.30;;;14.10;;
69551;SDS011;63774;45.292;11.784;2023-06-22T01:31:22;19.30;;;15.00;;
69551;SDS011;63774;45.292;11.784;2023-06-22T01:33:50;18.10;;;14.80;;
69551;SDS011;63774;45.292;11.784;2023-06-22T01:36:18;19.80;;;15.40;;
69551;SDS011;63774;45.292;11.784;2023-06-22T01:38:45;21.20;;;16.00;;
69551;SDS011;63774;45.292;11.784;2023-06-22T01:41:11;20.80;;;15.40;;
69551;SDS011;63774;45.292;11.784;2023-06-22T01:43:37;21.20;;;15.50;;
69551;SDS011;63774;45.292;11.784;2023-06-22T01:46:03;19.40;;;16.00;;
69551;SDS011;63774;45.292;11.784;2023-06-22T01:48:29;21.10;;;16.00;;
69551;SDS011;63774;45.292;11.784;2023-06-22T01:50:55;19.30;;;15.50;;
69551;SDS011;63774;45.292;11.784;2023-06-22T01:53:21;20.60;;;15.10;;
69551;SDS011;63774;45.292;11.784;2023-06-22T01:55:47;19.20;;;15.30;;
69551;SDS011;63774;45.292;11.784;2023-06-22T01:58:13;19.80;;;16.10;;
69551;SDS011;63774;45.292;11.784;2023-06-22T02:00:39;21.60;;;15.00;;
69551;SDS011;63774;45.292;11.784;2023-06-22T02:03:10;18.20;;;14.60;;
69551;SDS011;63774;45.292;11.784;2023-06-22T02:05:46;22.00;;;15.40;;
69551;SDS011;63774;45.292;11.784;2023-06-22T02:08:22;23.50;;;16.20;;
69551;SDS011;63774;45.292;11.784;2023-06-22T02:10:49;20.30;;;15.70;;
69551;SDS011;63774;45.292;11.784;2023-06-22T02:13:17;19.50;;;14.50;;
69551;SDS011;63774;45.292;11.784;2023-06-22T02:15:43;20.40;;;14.60;;
69551;SDS011;63774;45.292;11.784;2023-06-22T02:18:09;19.90;;;14.80;;
69551;SDS011;63774;45.292;11.784;2023-06-22T02:20:39;19.40;;;15.00;;
69551;SDS011;63774;45.292;11.784;2023-06-22T02:23:05;23.80;;;15.20;;
69551;SDS011;63774;45.292;11.784;2023-06-22T02:25:31;18.30;;;15.40;;
69551;SDS011;63774;45.292;11.784;2023-06-22T02:27:57;20.00;;;14.60;;
69551;SDS011;63774;45.292;11.784;2023-06-22T02:30:22;19.70;;;15.40;;
69551;SDS011;63774;45.292;11.784;2023-06-22T02:32:48;18.60;;;15.00;;
69551;SDS011;63774;45.292;11.784;2023-06-22T02:35:13;22.10;;;15.50;;
69551;SDS011;63774;45.292;11.784;2023-06-22T02:37:38;22.10;;;15.80;;
69551;SDS011;63774;45.292;11.784;2023-06-22T02:40:06;21.80;;;16.00;;
69551;SDS011;63774;45.292;11.784;2023-06-22T02:42:34;19.30;;;16.20;;
69551;SDS011;63774;45.292;11.784;2023-06-22T02:45:00;26.10;;;17.10;;
69551;SDS011;63774;45.292;11.784;2023-06-22T02:47:25;22.20;;;16.30;;
69551;SDS011;63774;45.292;11.784;2023-06-22T02:49:51;19.60;;;15.60;;
69551;SDS011;63774;45.292;11.784;2023-06-22T02:52:17;22.30;;;15.60;;
69551;SDS011;63774;45.292;11.784;2023-06-22T02:54:42;19.60;;;16.10;;
69551;SDS011;63774;45.292;11.784;2023-06-22T02:57:10;19.10;;;16.70;;
69551;SDS011;63774;45.292;11.784;2023-06-22T02:59:39;21.70;;;16.10;;
69551;SDS011;63774;45.292;11.784;2023-06-22T03:02:06;20.40;;;16.00;;
69551;SDS011;63774;45.292;11.784;2023-06-22T03:04:32;20.30;;;15.70;;
69551;SDS011;63774;45.292;11.784;2023-06-22T03:06:58;21.70;;;15.90;;
69551;SDS011;63774;45.292;11.784;2023-06-22T03:09:26;19.60;;;16.00;;
69551;SDS011;63774;45.292;11.784;2023-06-22T03:11:52;21.70;;;15.80;;
69551;SDS011;63774;45.292;11.784;2023-06-22T03:14:18;19.80;;;16.00;;
69551;SDS011;63774;45.292;11.784;2023-06-22T03:16:43;19.10;;;15.20;;
69551;SDS011;63774;45.292;11.784;2023-06-22T03:19:09;19.60;;;15.90;;
69551;SDS011;63774;45.292;11.784;2023-06-22T03:21:34;20.70;;;14.50;;
69551;SDS011;63774;45.292;11.784;2023-06-22T03:24:02;20.30;;;15.80;;
69551;SDS011;63774;45.292;11.784;2023-06-22T03:26:27;24.30;;;16.80;;
69551;SDS011;63774;45.292;11.784;2023-06-22T03:28:53;19.50;;;15.80;;
69551;SDS011;63774;45.292;11.784;2023-06-22T03:31:18;22.10;;;16.50;;
69551;SDS011;63774;45.292;11.784;2023-06-22T03:33:47;23.70;;;17.00;;
69551;SDS011;63774;45.292;11.784;2023-06-22T03:36:14;23.60;;;17.30;;
69551;SDS011;63774;45.292;11.784;2023-06-22T03:38:41;20.80;;;17.30;;
69551;SDS011;63774;45.292;11.784;2023-06-22T03:41:06;20.70;;;16.90;;
69551;SDS011;63774;45.292;11.784;2023-06-22T03:43:32;23.80;;;18.10;;
69551;SDS011;63774;45.292;11.784;2023-06-22T03:45:57;22.30;;;16.50;;
69551;SDS011;63774;45.292;11.784;2023-06-22T03:48:23;24.80;;;17.40;;
69551;SDS011;63774;45.292;11.784;2023-06-22T03:50:48;23.50;;;17.80;;
69551;SDS011;63774;45.292;11.784;2023-06-22T03:53:13;20.30;;;16.60;;
69551;SDS011;63774;45.292;11.784;2023-06-22T03:55:42;20.70;;;16.90;;
69551;SDS011;63774;45.292;11.784;2023-06-22T03:58:14;21.00;;;17.10;;
69551;SDS011;63774;45.292;11.784;2023-06-22T04:00:39;22.60;;;17.20;;
69551;SDS011;63774;45.292;11.784;2023-06-22T04:03:04;21.80;;;17.30;;
69551;SDS011;63774;45.292;11.784;2023-06-22T04:05:30;24.70;;;17.60;;
69551;SDS011;63774;45.292;11.784;2023-06-22T04:07:55;23.30;;;18.40;;
69551;SDS011;63774;45.292;11.784;2023-06-22T04:10:21;25.10;;;17.40;;
69551;SDS011;63774;45.292;11.784;2023-06-22T04:12:46;22.10;;;17.90;;
69551;SDS011;63774;45.292;11.784;2023-06-22T04:15:12;24.40;;;18.20;;
69551;SDS011;63774;45.292;11.784;2023-06-22T04:17:37;21.70;;;17.40;;
69551;SDS011;63774;45.292;11.784;2023-06-22T04:20:02;23.90;;;17.10;;
69551;SDS011;63774;45.292;11.784;2023-06-22T04:22:29;22.00;;;17.00;;
69551;SDS011;63774;45.292;11.784;2023-06-22T04:24:55;24.60;;;18.10;;
69551;SDS011;63774;45.292;11.784;2023-06-22T04:27:20;23.80;;;18.10;;
69551;SDS011;63774;45.292;11.784;2023-06-22T04:29:48;22.00;;;17.90;;
69551;SDS011;63774;45.292;11.784;2023-06-22T04:32:14;22.80;;;18.10;;
69551;SDS011;63774;45.292;11.784;2023-06-22T04:34:41;24.40;;;18.00;;
69551;SDS011;63774;45.292;11.784;2023-06-22T04:37:06;23.90;;;18.70;;
69551;SDS011;63774;45.292;11.784;2023-06-22T04:39:32;25.90;;;17.80;;
69551;SDS011;63774;45.292;11.784;2023-06-22T04:41:57;21.70;;;16.70;;
69551;SDS011;63774;45.292;11.784;2023-06-22T04:44:25;24.80;;;17.10;;
69551;SDS011;63774;45.292;11.784;2023-06-22T04:46:52;21.70;;;16.70;;
69551;SDS011;63774;45.292;11.784;2023-06-22T04:49:33;22.20;;;17.10;;
69551;SDS011;63774;45.292;11.784;2023-06-22T04:52:03;21.00;;;17.60;;
69551;SDS011;63774;45.292;11.784;2023-06-22T04:54:29;24.30;;;16.40;;
69551;SDS011;63774;45.292;11.784;2023-06-22T04:56:58;24.60;;;16.60;;
69551;SDS011;63774;45.292;11.784;2023-06-22T04:59:24;21.40;;;16.80;;
69551;SDS011;63774;45.292;11.784;2023-06-22T05:01:53;26.20;;;17.40;;
69551;SDS011;63774;45.292;11.784;2023-06-22T05:04:19;23.20;;;17.00;;
69551;SDS011;63774;45.292;11.784;2023-06-22T05:06:44;23.50;;;17.20;;
69551;SDS011;63774;45.292;11.784;2023-06-22T05:09:10;23.80;;;17.20;;
69551;SDS011;63774;45.292;11.784;2023-06-22T05:11:37;25.00;;;16.80;;
69551;SDS011;63774;45.292;11.784;2023-06-22T05:14:03;21.20;;;16.00;;
69551;SDS011;63774;45.292;11.784;2023-06-22T05:16:28;21.30;;;16.20;;
69551;SDS011;63774;45.292;11.784;2023-06-22T05:18:54;22.60;;;15.90;;
69551;SDS011;63774;45.292;11.784;2023-06-22T05:21:23;20.20;;;15.20;;
69551;SDS011;63774;45.292;11.784;2023-06-22T05:23:50;22.50;;;15.80;;
69551;SDS011;63774;45.292;11.784;2023-06-22T05:26:17;20.80;;;14.50;;
69551;SDS011;63774;45.292;11.784;2023-06-22T05:28:43;19.50;;;14.40;;
69551;SDS011;63774;45.292;11.784;2023-06-22T05:31:14;20.00;;;14.90;;
69551;SDS011;63774;45.292;11.784;2023-06-22T05:33:41;21.00;;;14.60;;
69551;SDS011;63774;45.292;11.784;2023-06-22T05:36:08;19.70;;;14.70;;
69551;SDS011;63774;45.292;11.784;2023-06-22T05:38:34;19.50;;;14.60;;
69551;SDS011;63774;45.292;11.784;2023-06-22T05:41:00;17.70;;;14.20;;
69551;SDS011;63774;45.292;11.784;2023-06-22T05:43:25;18.20;;;14.50;;
69551;SDS011;63774;45.292;11.784;2023-06-22T05:45:50;19.30;;;14.80;;
69551;SDS011;63774;45.292;11.784;2023-06-22T05:48:16;19.30;;;15.30;;
69551;SDS011;63774;45.292;11.784;2023-06-22T05:50:41;18.20;;;14.70;;
69551;SDS011;63774;45.292;11.784;2023-06-22T05:53:07;20.30;;;14.70;;
69551;SDS011;63774;45.292;11.784;2023-06-22T05:55:32;22.20;;;15.00;;
69551;SDS011;63774;45.292;11.784;2023-06-22T05:57:58;20.30;;;14.70;;
69551;SDS011;63774;45.292;11.784;2023-06-22T06:00:23;17.90;;;13.90;;
69551;SDS011;63774;45.292;11.784;2023-06-22T06:02:49;16.80;;;13.90;;
69551;SDS011;63774;45.292;11.784;2023-06-22T06:05:15;16.20;;;13.50;;
69551;SDS011;63774;45.292;11.784;2023-06-22T06:07:44;16.10;;;13.20;;
69551;SDS011;63774;45.292;11.784;2023-06-22T06:10:10;17.30;;;13.10;;
69551;SDS011;63774;45.292;11.784;2023-06-22T06:12:35;17.70;;;13.90;;
69551;SDS011;63774;45.292;11.784;2023-06-22T06:15:01;16.50;;;13.10;;
69551;SDS011;63774;45.292;11.784;2023-06-22T06:17:27;17.20;;;13.20;;
69551;SDS011;63774;45.292;11.784;2023-06-22T06:19:53;17.10;;;12.90;;
69551;SDS011;63774;45.292;11.784;2023-06-22T06:22:18;15.90;;;13.00;;
69551;SDS011;63774;45.292;11.784;2023-06-22T06:24:45;15.40;;;12.10;;
69551;SDS011;63774;45.292;11.784;2023-06-22T06:27:11;16.30;;;12.40;;
69551;SDS011;63774;45.292;11.784;2023-06-22T06:29:36;17.30;;;13.10;;
69551;SDS011;63774;45.292;11.784;2023-06-22T06:32:01;17.20;;;12.90;;
69551;SDS011;63774;45.292;11.784;2023-06-22T06:34:27;19.90;;;13.00;;
69551;SDS011;63774;45.292;11.784;2023-06-22T06:36:52;16.80;;;12.90;;
69551;SDS011;63774;45.292;11.784;2023-06-22T06:39:18;15.40;;;12.80;;
69551;SDS011;63774;45.292;11.784;2023-06-22T06:41:43;16.00;;;13.00;;
69551;SDS011;63774;45.292;11.784;2023-06-22T06:44:09;18.20;;;13.00;;
69551;SDS011;63774;45.292;11.784;2023-06-22T06:46:34;16.80;;;12.00;;
69551;SDS011;63774;45.292;11.784;2023-06-22T06:48:59;18.00;;;12.40;;
69551;SDS011;63774;45.292;11.784;2023-06-22T06:51:25;19.40;;;12.30;;
69551;SDS011;63774;45.292;11.784;2023-06-22T06:53:50;15.30;;;12.10;;
69551;SDS011;63774;45.292;11.784;2023-06-22T06:56:16;14.50;;;11.80;;
69551;SDS011;63774;45.292;11.784;2023-06-22T06:58:41;13.70;;;12.00;;
69551;SDS011;63774;45.292;11.784;2023-06-22T07:01:07;15.60;;;11.80;;
69551;SDS011;63774;45.292;11.784;2023-06-22T07:03:33;17.20;;;12.00;;
69551;SDS011;63774;45.292;11.784;2023-06-22T07:05:59;17.60;;;12.00;;
69551;SDS011;63774;45.292;11.784;2023-06-22T07:08:24;17.50;;;12.20;;
69551;SDS011;63774;45.292;11.784;2023-06-22T07:10:50;16.60;;;11.70;;
69551;SDS011;63774;45.292;11.784;2023-06-22T07:13:17;14.30;;;11.50;;
69551;SDS011;63774;45.292;11.784;2023-06-22T07:15:42;14.40;;;10.80;;
69551;SDS011;63774;45.292;11.784;2023-06-22T07:18:08;14.20;;;10.90;;
69551;SDS011;63774;45.292;11.784;2023-06-22T07:20:33;15.70;;;10.90;;
69551;SDS011;63774;45.292;11.784;2023-06-22T07:22:59;17.30;;;10.80;;
69551;SDS011;63774;45.292;11.784;2023-06-22T07:25:24;15.50;;;11.10;;
69551;SDS011;63774;45.292;11.784;2023-06-22T07:30:27;14.70;;;11.50;;
69551;SDS011;63774;45.292;11.784;2023-06-22T07:32:53;15.20;;;11.60;;
69551;SDS011;63774;45.292;11.784;2023-06-22T07:35:18;14.20;;;11.40;;
69551;SDS011;63774;45.292;11.784;2023-06-22T07:37:44;15.30;;;11.40;;
69551;SDS011;63774;45.292;11.784;2023-06-22T07:40:09;14.30;;;11.60;;
69551;SDS011;63774;45.292;11.784;2023-06-22T07:42:35;16.50;;;11.50;;
69551;SDS011;63774;45.292;11.784;2023-06-22T07:45:01;18.10;;;10.90;;
69551;SDS011;63774;45.292;11.784;2023-06-22T07:47:28;13.60;;;10.60;;
69551;SDS011;63774;45.292;11.784;2023-06-22T07:49:58;15.40;;;11.20;;
69551;SDS011;63774;45.292;11.784;2023-06-22T07:52:26;17.60;;;11.60;;
69551;SDS011;63774;45.292;11.784;2023-06-22T07:54:51;15.30;;;12.00;;
69551;SDS011;63774;45.292;11.784;2023-06-22T07:57:17;16.30;;;11.20;;
69551;SDS011;63774;45.292;11.784;2023-06-22T07:59:42;13.30;;;10.90;;
69551;SDS011;63774;45.292;11.784;2023-06-22T08:02:08;12.20;;;10.60;;
69551;SDS011;63774;45.292;11.784;2023-06-22T08:04:34;14.30;;;11.50;;
69551;SDS011;63774;45.292;11.784;2023-06-22T08:07:00;13.40;;;11.00;;
69551;SDS011;63774;45.292;11.784;2023-06-22T08:09:30;17.20;;;11.00;;
69551;SDS011;63774;45.292;11.784;2023-06-22T08:11:57;12.90;;;10.60;;
69551;SDS011;63774;45.292;11.784;2023-06-22T08:14:25;11.80;;;10.50;;
69551;SDS011;63774;45.292;11.784;2023-06-22T08:16:51;12.00;;;10.20;;
69551;SDS011;63774;45.292;11.784;2023-06-22T08:19:16;16.10;;;11.20;;
69551;SDS011;63774;45.292;11.784;2023-06-22T08:21:42;14.20;;;10.70;;
69551;SDS011;63774;45.292;11.784;2023-06-22T08:24:08;14.20;;;10.30;;
69551;SDS011;63774;45.292;11.784;2023-06-22T08:26:33;13.40;;;10.50;;
69551;SDS011;63774;45.292;11.784;2023-06-22T08:29:04;14.50;;;11.10;;
69551;SDS011;63774;45.292;11.784;2023-06-22T08:31:30;14.80;;;10.50;;
69551;SDS011;63774;45.292;11.784;2023-06-22T08:33:58;14.80;;;10.60;;
69551;SDS011;63774;45.292;11.784;2023-06-22T08:36:24;13.00;;;10.80;;
69551;SDS011;63774;45.292;11.784;2023-06-22T08:38:50;13.40;;;10.60;;
69551;SDS011;63774;45.292;11.784;2023-06-22T08:41:17;14.00;;;10.00;;
69551;SDS011;63774;45.292;11.784;2023-06-22T08:43:43;10.90;;;9.20;;
69551;SDS011;63774;45.292;11.784;2023-06-22T08:46:09;12.00;;;9.90;;
69551;SDS011;63774;45.292;11.784;2023-06-22T08:48:35;11.60;;;9.50;;
69551;SDS011;63774;45.292;11.784;2023-06-22T08:51:01;11.90;;;9.50;;
69551;SDS011;63774;45.292;11.784;2023-06-22T08:53:27;11.90;;;9.90;;
69551;SDS011;63774;45.292;11.784;2023-06-22T08:55:52;13.10;;;9.80;;
69551;SDS011;63774;45.292;11.784;2023-06-22T08:58:18;12.00;;;9.70;;
69551;SDS011;63774;45.292;11.784;2023-06-22T09:00:45;12.00;;;9.70;;
69551;SDS011;63774;45.292;11.784;2023-06-22T09:03:10;12.20;;;9.10;;
69551;SDS011;63774;45.292;11.784;2023-06-22T09:05:36;13.10;;;9.60;;
69551;SDS011;63774;45.292;11.784;2023-06-22T09:08:02;14.30;;;9.50;;
69551;SDS011;63774;45.292;11.784;2023-06-22T09:10:28;12.70;;;9.70;;
69551;SDS011;63774;45.292;11.784;2023-06-22T09:12:54;12.90;;;9.40;;
69551;SDS011;63774;45.292;11.784;2023-06-22T09:15:19;12.40;;;9.70;;
69551;SDS011;63774;45.292;11.784;2023-06-22T09:17:44;13.30;;;9.00;;
69551;SDS011;63774;45.292;11.784;2023-06-22T09:20:11;10.10;;;8.90;;
69551;SDS011;63774;45.292;11.784;2023-06-22T09:22:37;12.00;;;9.00;;
69551;SDS011;63774;45.292;11.784;2023-06-22T09:25:04;11.00;;;8.40;;
69551;SDS011;63774;45.292;11.784;2023-06-22T09:27:30;10.40;;;8.30;;
69551;SDS011;63774;45.292;11.784;2023-06-22T09:29:55;10.80;;;8.60;;
69551;SDS011;63774;45.292;11.784;2023-06-22T09:32:23;11.40;;;9.10;;
69551;SDS011;63774;45.292;11.784;2023-06-22T09:34:49;11.00;;;8.80;;
69551;SDS011;63774;45.292;11.784;2023-06-22T09:37:14;11.60;;;9.30;;
69551;SDS011;63774;45.292;11.784;2023-06-22T09:39:40;12.50;;;8.60;;
69551;SDS011;63774;45.292;11.784;2023-06-22T09:42:05;11.80;;;8.70;;
69551;SDS011;63774;45.292;11.784;2023-06-22T09:44:31;12.50;;;8.70;;
69551;SDS011;63774;45.292;11.784;2023-06-22T09:46:56;10.50;;;9.00;;
69551;SDS011;63774;45.292;11.784;2023-06-22T09:49:22;11.40;;;8.80;;
69551;SDS011;63774;45.292;11.784;2023-06-22T09:51:47;10.80;;;8.80;;
69551;SDS011;63774;45.292;11.784;2023-06-22T09:54:14;13.40;;;9.40;;
69551;SDS011;63774;45.292;11.784;2023-06-22T09:56:40;12.90;;;9.20;;
69551;SDS011;63774;45.292;11.784;2023-06-22T09:59:05;11.50;;;8.80;;
69551;SDS011;63774;45.292;11.784;2023-06-22T10:01:31;11.80;;;9.10;;
69551;SDS011;63774;45.292;11.784;2023-06-22T10:03:56;11.90;;;8.90;;
69551;SDS011;63774;45.292;11.784;2023-06-22T10:06:22;12.80;;;8.80;;
69551;SDS011;63774;45.292;11.784;2023-06-22T10:08:47;15.30;;;8.70;;
69551;SDS011;63774;45.292;11.784;2023-06-22T10:11:15;10.10;;;8.80;;
69551;SDS011;63774;45.292;11.784;2023-06-22T10:13:40;12.00;;;9.20;;
69551;SDS011;63774;45.292;11.784;2023-06-22T10:16:05;11.10;;;8.90;;
69551;SDS011;63774;45.292;11.784;2023-06-22T10:18:32;11.00;;;8.30;;
69551;SDS011;63774;45.292;11.784;2023-06-22T10:20:57;11.90;;;9.00;;
69551;SDS011;63774;45.292;11.784;2023-06-22T10:23:23;12.10;;;9.00;;
69551;SDS011;63774;45.292;11.784;2023-06-22T10:25:48;12.70;;;8.70;;
69551;SDS011;63774;45.292;11.784;2023-06-22T10:28:14;10.80;;;9.10;;
69551;SDS011;63774;45.292;11.784;2023-06-22T10:30:40;12.10;;;8.80;;
69551;SDS011;63774;45.292;11.784;2023-06-22T10:33:09;11.80;;;9.00;;
69551;SDS011;63774;45.292;11.784;2023-06-22T10:35:36;10.50;;;8.40;;
69551;SDS011;63774;45.292;11.784;2023-06-22T10:38:05;10.80;;;8.60;;
69551;SDS011;63774;45.292;11.784;2023-06-22T10:40:31;12.70;;;8.70;;
69551;SDS011;63774;45.292;11.784;2023-06-22T10:42:56;10.30;;;8.90;;
69551;SDS011;63774;45.292;11.784;2023-06-22T10:45:22;12.40;;;8.90;;
69551;SDS011;63774;45.292;11.784;2023-06-22T10:47:48;9.80;;;8.50;;
69551;SDS011;63774;45.292;11.784;2023-06-22T10:50:13;11.10;;;8.80;;
69551;SDS011;63774;45.292;11.784;2023-06-22T10:52:40;14.00;;;9.00;;
69551;SDS011;63774;45.292;11.784;2023-06-22T10:55:08;10.20;;;8.70;;
69551;SDS011;63774;45.292;11.784;2023-06-22T10:57:35;10.90;;;8.50;;
69551;SDS011;63774;45.292;11.784;2023-06-22T11:00:01;14.70;;;8.80;;
69551;SDS011;63774;45.292;11.784;2023-06-22T11:02:30;12.80;;;8.90;;
69551;SDS011;63774;45.292;11.784;2023-06-22T11:04:55;12.50;;;8.40;;
69551;SDS011;63774;45.292;11.784;2023-06-22T11:07:20;11.40;;;9.00;;
69551;SDS011;63774;45.292;11.784;2023-06-22T11:09:46;12.20;;;9.00;;
69551;SDS011;63774;45.292;11.784;2023-06-22T11:12:11;11.30;;;9.00;;
69551;SDS011;63774;45.292;11.784;2023-06-22T11:14:38;10.30;;;8.70;;
69551;SDS011;63774;45.292;11.784;2023-06-22T11:17:04;11.60;;;8.60;;
69551;SDS011;63774;45.292;11.784;2023-06-22T11:19:29;10.80;;;8.50;;
69551;SDS011;63774;45.292;11.784;2023-06-22T11:21:55;11.40;;;8.60;;
69551;SDS011;63774;45.292;11.784;2023-06-22T11:24:20;10.10;;;8.10;;
69551;SDS011;63774;45.292;11.784;2023-06-22T11:26:46;13.80;;;8.20;;
69551;SDS011;63774;45.292;11.784;2023-06-22T11:29:11;10.70;;;8.30;;
69551;SDS011;63774;45.292;11.784;2023-06-22T11:31:36;14.00;;;8.30;;
69551;SDS011;63774;45.292;11.784;2023-06-22T11:34:03;11.60;;;8.50;;
69551;SDS011;63774;45.292;11.784;2023-06-22T11:36:29;12.50;;;8.10;;
69551;SDS011;63774;45.292;11.784;2023-06-22T11:38:57;10.10;;;8.00;;
69551;SDS011;63774;45.292;11.784;2023-06-22T11:41:23;11.30;;;7.70;;
69551;SDS011;63774;45.292;11.784;2023-06-22T11:43:48;11.50;;;8.00;;
69551;SDS011;63774;45.292;11.784;2023-06-22T11:46:14;11.60;;;8.20;;
69551;SDS011;63774;45.292;11.784;2023-06-22T11:48:39;12.30;;;8.40;;
69551;SDS011;63774;45.292;11.784;2023-06-22T11:51:05;11.90;;;7.90;;
69551;SDS011;63774;45.292;11.784;2023-06-22T11:53:31;10.80;;;8.40;;
69551;SDS011;63774;45.292;11.784;2023-06-22T11:55:56;10.50;;;8.00;;
69551;SDS011;63774;45.292;11.784;2023-06-22T11:58:22;10.00;;;7.70;;
69551;SDS011;63774;45.292;11.784;2023-06-22T12:00:48;10.00;;;7.70;;
69551;SDS011;63774;45.292;11.784;2023-06-22T12:03:14;10.00;;;7.60;;
69551;SDS011;63774;45.292;11.784;2023-06-22T12:05:39;9.50;;;7.80;;
69551;SDS011;63774;45.292;11.784;2023-06-22T12:08:05;10.00;;;7.60;;
69551;SDS011;63774;45.292;11.784;2023-06-22T12:10:31;12.40;;;8.20;;
69551;SDS011;63774;45.292;11.784;2023-06-22T12:12:57;11.00;;;7.50;;
69551;SDS011;63774;45.292;11.784;2023-06-22T12:15:23;11.10;;;7.50;;
69551;SDS011;63774;45.292;11.784;2023-06-22T12:17:49;11.20;;;7.40;;
69551;SDS011;63774;45.292;11.784;2023-06-22T12:20:14;10.10;;;7.70;;
69551;SDS011;63774;45.292;11.784;2023-06-22T12:22:40;10.20;;;7.90;;
69551;SDS011;63774;45.292;11.784;2023-06-22T12:25:06;8.70;;;7.50;;
69551;SDS011;63774;45.292;11.784;2023-06-22T12:27:32;10.10;;;7.60;;
69551;SDS011;63774;45.292;11.784;2023-06-22T12:29:58;11.40;;;7.80;;
69551;SDS011;63774;45.292;11.784;2023-06-22T12:32:23;9.40;;;7.90;;
69551;SDS011;63774;45.292;11.784;2023-06-22T12:34:49;10.00;;;7.50;;
69551;SDS011;63774;45.292;11.784;2023-06-22T12:37:15;11.40;;;7.80;;
69551;SDS011;63774;45.292;11.784;2023-06-22T12:39:40;13.70;;;8.00;;
69551;SDS011;63774;45.292;11.784;2023-06-22T12:42:06;9.80;;;7.60;;
69551;SDS011;63774;45.292;11.784;2023-06-22T12:44:34;9.20;;;7.80;;
69551;SDS011;63774;45.292;11.784;2023-06-22T12:46:59;9.80;;;7.30;;
69551;SDS011;63774;45.292;11.784;2023-06-22T12:49:25;8.60;;;7.40;;
69551;SDS011;63774;45.292;11.784;2023-06-22T12:51:50;8.40;;;7.30;;
69551;SDS011;63774;45.292;11.784;2023-06-22T12:54:16;9.20;;;7.80;;
69551;SDS011;63774;45.292;11.784;2023-06-22T12:56:41;9.80;;;7.90;;
69551;SDS011;63774;45.292;11.784;2023-06-22T12:59:08;11.50;;;7.60;;
69551;SDS011;63774;45.292;11.784;2023-06-22T13:01:34;10.20;;;7.80;;
69551;SDS011;63774;45.292;11.784;2023-06-22T13:03:59;9.20;;;7.60;;
69551;SDS011;63774;45.292;11.784;2023-06-22T13:06:25;10.40;;;7.70;;
69551;SDS011;63774;45.292;11.784;2023-06-22T13:08:50;10.20;;;7.40;;
69551;SDS011;63774;45.292;11.784;2023-06-22T13:11:16;10.00;;;7.20;;
69551;SDS011;63774;45.292;11.784;2023-06-22T13:13:41;9.30;;;7.50;;
69551;SDS011;63774;45.292;11.784;2023-06-22T13:16:07;10.60;;;7.10;;
69551;SDS011;63774;45.292;11.784;2023-06-22T13:18:32;8.10;;;6.90;;
69551;SDS011;63774;45.292;11.784;2023-06-22T13:21:00;9.30;;;7.20;;
69551;SDS011;63774;45.292;11.784;2023-06-22T13:23:26;12.30;;;7.50;;
69551;SDS011;63774;45.292;11.784;2023-06-22T13:25:52;10.70;;;7.30;;
69551;SDS011;63774;45.292;11.784;2023-06-22T13:28:17;11.60;;;7.10;;
69551;SDS011;63774;45.292;11.784;2023-06-22T13:30:43;9.40;;;7.40;;
69551;SDS011;63774;45.292;11.784;2023-06-22T13:33:11;10.50;;;7.10;;
69551;SDS011;63774;45.292;11.784;2023-06-22T13:35:36;12.40;;;7.60;;
69551;SDS011;63774;45.292;11.784;2023-06-22T13:38:02;8.30;;;7.10;;
69551;SDS011;63774;45.292;11.784;2023-06-22T13:40:28;8.90;;;7.20;;
69551;SDS011;63774;45.292;11.784;2023-06-22T13:42:53;9.00;;;7.40;;
69551;SDS011;63774;45.292;11.784;2023-06-22T13:45:19;8.30;;;7.00;;
69551;SDS011;63774;45.292;11.784;2023-06-22T13:47:45;10.70;;;7.30;;
69551;SDS011;63774;45.292;11.784;2023-06-22T13:50:10;8.70;;;6.70;;
69551;SDS011;63774;45.292;11.784;2023-06-22T13:52:37;9.40;;;7.40;;
69551;SDS011;63774;45.292;11.784;2023-06-22T13:55:04;8.90;;;7.60;;
69551;SDS011;63774;45.292;11.784;2023-06-22T13:57:30;10.90;;;7.00;;
69551;SDS011;63774;45.292;11.784;2023-06-22T13:59:56;10.40;;;7.40;;
69551;SDS011;63774;45.292;11.784;2023-06-22T14:02:21;9.40;;;6.80;;
69551;SDS011;63774;45.292;11.784;2023-06-22T14:04:47;11.00;;;7.30;;
69551;SDS011;63774;45.292;11.784;2023-06-22T14:07:12;9.30;;;6.80;;
69551;SDS011;63774;45.292;11.784;2023-06-22T14:09:38;9.70;;;7.50;;
69551;SDS011;63774;45.292;11.784;2023-06-22T14:12:07;11.30;;;7.20;;
69551;SDS011;63774;45.292;11.784;2023-06-22T14:14:33;9.00;;;7.10;;
69551;SDS011;63774;45.292;11.784;2023-06-22T14:16:58;8.50;;;7.30;;
69551;SDS011;63774;45.292;11.784;2023-06-22T14:19:24;10.40;;;7.70;;
69551;SDS011;63774;45.292;11.784;2023-06-22T14:21:50;9.10;;;7.30;;